createdAt,value
2023-05-23T00:01:24.940Z,13.15
2023-05-23T00:05:29.242Z,12.68
2023-05-23T00:09:32.002Z,13.40
2023-05-23T00:13:35.882Z,12.53
2023-05-23T00:17:39.599Z,12.71
2023-05-23T00:21:45.664Z,12.13
2023-05-23T00:25:52.828Z,12.28
2023-05-23T00:29:56.099Z,12.11
2023-05-23T00:33:58.762Z,12.16
2023-05-23T00:38:03.419Z,12.53
2023-05-23T00:42:07.882Z,12.68
2023-05-23T00:46:11.203Z,12.86
2023-05-23T00:50:17.938Z,12.31
2023-05-23T00:54:27.297Z,12.09
2023-05-23T00:58:30.428Z,11.45
2023-05-23T01:02:36.636Z,11.43
2023-05-23T01:06:40.170Z,10.72
2023-05-23T01:10:44.313Z,11.78
2023-05-23T01:14:52.634Z,12.15
2023-05-23T01:19:00.475Z,11.66
2023-05-23T01:23:37.939Z,11.70
2023-05-23T01:27:50.401Z,12.19
2023-05-23T01:31:54.980Z,11.89
2023-05-23T01:35:59.930Z,11.70
2023-05-23T01:40:02.720Z,11.54
2023-05-23T01:44:06.925Z,11.28
2023-05-23T01:48:10.607Z,10.89
2023-05-23T01:52:13.748Z,11.44
2023-05-23T01:56:16.560Z,11.36
2023-05-23T02:00:21.042Z,10.96
2023-05-23T02:04:24.094Z,11.57
2023-05-23T02:08:26.728Z,11.81
2023-05-23T02:12:29.432Z,11.25
2023-05-23T02:16:36.646Z,11.35
2023-05-23T02:20:40.137Z,11.05
2023-05-23T02:24:42.891Z,11.06
2023-05-23T02:28:45.599Z,11.06
2023-05-23T02:32:49.677Z,11.52
2023-05-23T02:36:52.568Z,11.39
2023-05-23T02:40:57.586Z,11.07
2023-05-23T02:45:00.340Z,11.47
2023-05-23T02:49:04.306Z,11.16
2023-05-23T02:53:07.043Z,10.65
2023-05-23T02:57:10.423Z,11.07
2023-05-23T03:01:13.103Z,11.26
2023-05-23T03:05:17.373Z,10.56
2023-05-23T03:09:20.172Z,10.66
2023-05-23T03:13:23.447Z,10.63
2023-05-23T03:17:26.874Z,10.75
2023-05-23T03:21:31.484Z,10.85
2023-05-23T03:25:34.483Z,10.76
2023-05-23T03:29:37.274Z,10.87
2023-05-23T03:33:40.650Z,10.85
2023-05-23T03:37:44.921Z,10.92
2023-05-23T03:41:47.826Z,10.76
2023-05-23T03:45:50.993Z,11.11
2023-05-23T03:49:53.833Z,11.26
2023-05-23T03:53:58.464Z,11.55
2023-05-23T03:58:01.691Z,11.51
2023-05-23T04:02:04.651Z,11.51
2023-05-23T04:06:07.970Z,11.51
2023-05-23T04:10:12.407Z,11.66
2023-05-23T04:14:15.797Z,11.58
2023-05-23T04:18:19.010Z,11.70
2023-05-23T04:22:21.808Z,11.70
2023-05-23T04:26:25.904Z,11.40
2023-05-23T04:30:30.597Z,11.45
2023-05-23T04:34:34.246Z,11.75
2023-05-23T04:38:38.468Z,11.87
2023-05-23T04:42:44.534Z,11.87
2023-05-23T04:46:47.240Z,12.08
2023-05-23T04:50:51.329Z,11.99
2023-05-23T04:54:54.172Z,12.16
2023-05-23T04:58:58.804Z,12.04
2023-05-23T05:03:01.547Z,12.22
2023-05-23T05:07:04.534Z,12.72
2023-05-23T05:11:07.242Z,13.24
2023-05-23T05:15:12.848Z,13.13
2023-05-23T05:19:16.983Z,13.43
2023-05-23T05:23:20.136Z,14.40
2023-05-23T05:27:22.847Z,14.28
2023-05-23T05:31:27.592Z,14.77
2023-05-23T05:35:30.417Z,14.78
2023-05-23T05:39:33.119Z,15.29
2023-05-23T05:43:36.008Z,15.23
2023-05-23T05:47:40.159Z,15.55
2023-05-23T05:51:42.849Z,15.00
2023-05-23T05:55:45.510Z,15.14
2023-05-23T05:59:48.192Z,15.18
2023-05-23T06:03:52.387Z,15.20
2023-05-23T06:07:55.182Z,15.06
2023-05-23T06:11:57.925Z,14.98
2023-05-23T06:16:00.792Z,14.98
2023-05-23T06:20:06.100Z,15.19
2023-05-23T06:24:09.216Z,15.02
2023-05-23T06:28:11.882Z,14.97
2023-05-23T06:32:14.619Z,14.90
2023-05-23T06:36:18.669Z,15.00
2023-05-23T06:40:21.456Z,15.01
2023-05-23T06:44:24.172Z,14.91
2023-05-23T06:48:26.866Z,14.72
2023-05-23T06:52:30.934Z,14.51
2023-05-23T06:56:33.609Z,14.54
2023-05-23T07:00:36.316Z,14.45
2023-05-23T07:04:39.224Z,14.42
2023-05-23T07:08:43.654Z,14.49
2023-05-23T07:12:46.385Z,14.56
2023-05-23T07:16:49.299Z,14.64
2023-05-23T07:20:52.041Z,14.61
2023-05-23T07:24:56.627Z,14.64
2023-05-23T07:28:59.812Z,14.74
2023-05-23T07:33:02.592Z,14.73
2023-05-23T07:37:05.322Z,14.74
2023-05-23T07:41:11.983Z,14.77
2023-05-23T07:45:15.582Z,14.80
2023-05-23T07:49:18.277Z,14.81
2023-05-23T07:53:21.114Z,14.73
2023-05-23T07:57:25.958Z,14.75
2023-05-23T08:01:29.487Z,15.02
2023-05-23T08:05:32.167Z,15.12
2023-05-23T08:09:34.822Z,15.15
2023-05-23T08:13:38.837Z,15.69
2023-05-23T08:17:41.657Z,15.73
2023-05-23T08:21:44.391Z,16.30
2023-05-23T08:25:47.170Z,16.16
2023-05-23T08:29:51.374Z,16.05
2023-05-23T08:33:54.099Z,16.18
2023-05-23T08:37:58.278Z,15.99
2023-05-23T08:42:01.796Z,15.84
2023-05-23T08:46:05.879Z,15.72
2023-05-23T08:50:10.260Z,15.95
2023-05-23T08:54:15.718Z,16.02
2023-05-23T08:58:21.142Z,16.21
2023-05-23T09:02:25.992Z,16.14
2023-05-23T09:06:28.688Z,16.32
2023-05-23T09:10:31.440Z,16.10
2023-05-23T09:14:34.204Z,16.44
2023-05-23T09:18:40.162Z,16.37
2023-05-23T09:22:43.322Z,16.33
2023-05-23T09:26:47.923Z,16.25
2023-05-23T09:30:59.205Z,16.12
2023-05-23T09:35:05.043Z,16.21
2023-05-23T09:39:08.173Z,16.42
2023-05-23T09:43:11.033Z,16.18
2023-05-23T09:47:13.908Z,16.55
2023-05-23T09:51:19.188Z,16.69
2023-05-23T09:55:21.864Z,16.81
2023-05-23T09:59:25.318Z,16.73
2023-05-23T10:03:33.349Z,16.82
2023-05-23T10:07:37.974Z,16.71
2023-05-23T10:12:43.967Z,16.25
2023-05-23T10:16:56.890Z,16.74
2023-05-23T10:21:08.658Z,16.51
2023-05-23T10:25:13.729Z,16.25
2023-05-23T10:29:16.635Z,16.20
2023-05-23T10:33:19.806Z,16.41
2023-05-23T10:37:26.532Z,16.32
2023-05-23T10:41:48.564Z,16.38
2023-05-23T10:45:52.150Z,15.99
2023-05-23T10:49:56.246Z,15.99
2023-05-23T10:53:58.968Z,15.92
2023-05-23T10:58:13.134Z,16.16
2023-05-23T11:02:16.864Z,16.30
2023-05-23T11:06:34.024Z,16.46
2023-05-23T11:10:53.495Z,16.53
2023-05-23T11:14:57.597Z,16.68
2023-05-23T11:19:23.170Z,16.47
2023-05-23T11:23:41.036Z,16.39
2023-05-23T11:27:47.686Z,16.32
2023-05-23T11:31:51.744Z,16.35
2023-05-23T11:35:54.469Z,16.54
2023-05-23T11:39:57.201Z,16.85
2023-05-23T11:44:01.637Z,16.47
2023-05-23T11:48:10.078Z,16.56
2023-05-23T11:52:12.775Z,16.49
2023-05-23T11:56:16.384Z,16.59
2023-05-23T12:00:20.073Z,16.41
2023-05-23T12:04:26.425Z,16.26
2023-05-23T12:08:29.183Z,16.62
2023-05-23T12:12:33.108Z,16.57
2023-05-23T12:16:36.369Z,16.75
2023-05-23T12:20:42.676Z,16.79
2023-05-23T12:24:48.516Z,16.54
2023-05-23T12:28:51.557Z,16.63
2023-05-23T12:32:54.229Z,16.68
2023-05-23T12:37:15.029Z,16.31
2023-05-23T12:41:22.305Z,16.46
2023-05-23T12:45:31.460Z,16.47
2023-05-23T12:49:34.141Z,16.63
2023-05-23T12:53:38.482Z,16.60
2023-05-23T12:57:41.423Z,16.69
2023-05-23T13:01:44.212Z,16.78
2023-05-23T13:05:46.996Z,16.72
2023-05-23T13:09:51.338Z,16.69
2023-05-23T13:13:54.032Z,16.77
2023-05-23T13:17:57.972Z,16.75
2023-05-23T13:22:01.464Z,16.58
2023-05-23T13:26:06.591Z,16.53
2023-05-23T13:30:10.334Z,16.57
2023-05-23T13:34:13.010Z,16.56
2023-05-23T13:38:16.305Z,16.65
2023-05-23T13:42:20.465Z,16.68
2023-05-23T13:46:23.226Z,16.64
2023-05-23T13:50:26.245Z,16.76
2023-05-23T13:54:28.897Z,16.93
2023-05-23T13:58:33.056Z,16.78
2023-05-23T14:02:35.904Z,16.80
2023-05-23T14:06:38.998Z,16.58
2023-05-23T14:10:41.809Z,16.59
2023-05-23T14:14:46.132Z,16.35
2023-05-23T14:18:48.845Z,16.33
2023-05-23T14:22:52.142Z,16.28
2023-05-23T14:26:55.076Z,16.37
2023-05-23T14:30:59.177Z,16.42
2023-05-23T14:35:01.871Z,16.29
2023-05-23T14:39:05.988Z,16.29
2023-05-23T14:43:09.676Z,16.13
2023-05-23T14:47:13.718Z,16.01
2023-05-23T14:51:30.399Z,15.79
2023-05-23T14:55:40.451Z,15.80
2023-05-23T14:59:43.280Z,15.90
2023-05-23T15:03:47.392Z,15.98
2023-05-23T15:07:50.196Z,15.91
2023-05-23T15:11:52.959Z,16.00
2023-05-23T15:15:56.675Z,16.10
2023-05-23T15:20:00.894Z,16.01
2023-05-23T15:24:04.245Z,15.92
2023-05-23T15:28:06.971Z,15.89
2023-05-23T15:32:09.720Z,15.81
2023-05-23T15:36:14.092Z,15.70
2023-05-23T15:40:16.901Z,15.65
2023-05-23T15:44:21.080Z,15.73
2023-05-23T15:48:23.727Z,15.67
2023-05-23T15:52:28.210Z,15.71
2023-05-23T15:56:30.960Z,15.66
2023-05-23T16:00:33.815Z,15.66
2023-05-23T16:04:36.982Z,15.80
2023-05-23T16:08:41.103Z,15.79
2023-05-23T16:12:43.829Z,15.68
2023-05-23T16:16:46.652Z,15.43
2023-05-23T16:20:49.381Z,15.41
2023-05-23T16:24:55.307Z,15.50
2023-05-23T16:28:58.210Z,15.42
2023-05-23T16:33:01.060Z,15.46
2023-05-23T16:37:03.747Z,15.52
2023-05-23T16:41:07.814Z,15.73
2023-05-23T16:45:10.898Z,15.78
2023-05-23T16:49:13.615Z,15.72
2023-05-23T16:53:16.327Z,15.59
2023-05-23T16:57:20.340Z,15.80
2023-05-23T17:01:23.116Z,15.77
2023-05-23T17:05:26.704Z,15.39
2023-05-23T17:09:29.375Z,15.40
2023-05-23T17:13:34.645Z,15.26
2023-05-23T17:17:37.612Z,15.20
2023-05-23T17:21:40.305Z,15.24
2023-05-23T17:25:43.202Z,15.04
2023-05-23T17:29:47.415Z,14.78
2023-05-23T17:33:50.173Z,14.71
2023-05-23T17:37:57.465Z,14.57
2023-05-23T17:42:00.973Z,14.36
2023-05-23T17:46:05.216Z,14.10
2023-05-23T17:50:10.008Z,14.11
2023-05-23T17:54:12.707Z,13.84
2023-05-23T17:58:15.630Z,13.80
2023-05-23T18:02:19.735Z,13.67
2023-05-23T18:06:22.423Z,13.49
2023-05-23T18:10:25.535Z,13.71
2023-05-23T18:14:28.169Z,13.71
2023-05-23T18:18:32.518Z,13.31
2023-05-23T18:22:35.271Z,13.09
2023-05-23T18:26:42.165Z,13.17
2023-05-23T18:30:45.094Z,13.05
2023-05-23T18:34:49.165Z,12.55
2023-05-23T18:38:52.117Z,12.89
2023-05-23T18:42:54.902Z,12.55
2023-05-23T18:46:57.743Z,12.36
2023-05-23T18:51:01.934Z,12.00
2023-05-23T18:55:05.675Z,12.29
2023-05-23T18:59:08.651Z,12.24
2023-05-23T19:03:11.887Z,12.00
2023-05-23T19:07:16.305Z,11.68
2023-05-23T19:11:19.043Z,11.91
2023-05-23T19:15:22.013Z,11.43
2023-05-23T19:19:24.741Z,11.26
2023-05-23T19:23:28.928Z,11.25
2023-05-23T19:27:31.568Z,11.10
2023-05-23T19:31:34.315Z,11.53
2023-05-23T19:35:37.166Z,11.30
2023-05-23T19:39:45.594Z,11.09
2023-05-23T19:43:48.349Z,11.37
2023-05-23T19:47:51.059Z,11.23
2023-05-23T19:51:53.746Z,10.95
2023-05-23T19:55:58.491Z,10.97
2023-05-23T20:00:01.295Z,10.93
2023-05-23T20:04:04.117Z,10.45
2023-05-23T20:08:06.881Z,10.65
2023-05-23T20:12:11.037Z,10.37
2023-05-23T20:16:13.995Z,10.01
2023-05-23T20:20:16.739Z,10.39
2023-05-23T20:24:19.883Z,10.18
2023-05-23T20:28:23.940Z,9.99
2023-05-23T20:32:26.860Z,10.15
2023-05-23T20:36:29.557Z,9.97
2023-05-23T20:40:33.539Z,9.62
2023-05-23T20:44:38.176Z,9.77
2023-05-23T20:48:41.268Z,9.28
2023-05-23T20:52:44.103Z,9.05
2023-05-23T20:56:47.157Z,9.48
2023-05-23T21:00:51.756Z,9.10
2023-05-23T21:04:54.641Z,8.93
2023-05-23T21:08:57.502Z,8.94
2023-05-23T21:13:00.315Z,8.76
2023-05-23T21:17:04.715Z,9.22
2023-05-23T21:21:07.481Z,9.00
2023-05-23T21:25:10.589Z,8.99
2023-05-23T21:29:13.241Z,8.73
2023-05-23T21:33:17.496Z,9.13
2023-05-23T21:37:20.223Z,9.22
2023-05-23T21:41:25.873Z,8.98
2023-05-23T21:45:28.589Z,9.39
2023-05-23T21:49:35.149Z,8.96
2023-05-23T21:53:37.918Z,8.81
2023-05-23T21:57:40.606Z,8.58
2023-05-23T22:01:43.380Z,8.85
2023-05-23T22:05:47.523Z,8.23
2023-05-23T22:09:51.147Z,8.57
2023-05-23T22:13:53.845Z,8.65
2023-05-23T22:17:57.377Z,8.37
2023-05-23T22:22:01.484Z,8.41
2023-05-23T22:26:05.181Z,8.58
2023-05-23T22:30:08.500Z,8.16
2023-05-23T22:34:11.305Z,8.05
2023-05-23T22:38:15.549Z,8.24
2023-05-23T22:42:18.295Z,7.96
2023-05-23T22:46:21.012Z,8.02
2023-05-23T22:50:23.679Z,7.75
2023-05-23T22:54:27.722Z,7.54
2023-05-23T22:58:30.426Z,7.43
2023-05-23T23:02:34.476Z,7.75
2023-05-23T23:06:37.311Z,7.33
2023-05-23T23:10:43.858Z,7.55
2023-05-23T23:14:47.362Z,7.90
2023-05-23T23:18:50.040Z,7.78
2023-05-23T23:22:52.742Z,7.87
2023-05-23T23:26:57.090Z,7.23
2023-05-23T23:30:59.796Z,7.41
2023-05-23T23:35:02.599Z,7.25
2023-05-23T23:39:05.281Z,7.42
2023-05-23T23:43:09.415Z,7.10
2023-05-23T23:47:12.081Z,7.08
2023-05-23T23:51:14.807Z,7.15
2023-05-23T23:55:17.514Z,7.07
2023-05-23T23:59:21.888Z,6.99
